createdAt,value
2023-04-07T00:01:46.660Z,8.77
2023-04-07T00:04:13.962Z,9.10
2023-04-07T00:06:41.157Z,8.68
2023-04-07T00:09:08.162Z,8.73
2023-04-07T00:11:35.282Z,8.63
2023-04-07T00:14:02.733Z,8.25
2023-04-07T00:16:29.984Z,7.47
2023-04-07T00:18:56.981Z,8.68
2023-04-07T00:21:24.116Z,7.30
2023-04-07T00:23:52.562Z,7.30
2023-04-07T00:26:19.941Z,8.68
2023-04-07T00:28:47.196Z,7.32
2023-04-07T00:31:14.407Z,7.15
2023-04-07T00:33:41.602Z,7.70
2023-04-07T00:36:08.841Z,7.70
2023-04-07T00:38:35.953Z,7.18
2023-04-07T00:41:02.988Z,5.97
2023-04-07T00:43:30.568Z,6.57
2023-04-07T00:45:57.679Z,6.45
2023-04-07T00:48:24.843Z,6.00
2023-04-07T00:50:51.957Z,6.55
2023-04-07T00:53:19.738Z,6.13
2023-04-07T00:55:47.387Z,6.38
2023-04-07T00:58:14.437Z,6.82
2023-04-07T01:00:59.308Z,5.78
2023-04-07T01:03:49.645Z,6.43
2023-04-07T01:06:19.317Z,6.57
2023-04-07T01:08:57.366Z,6.80
2023-04-07T01:11:44.378Z,6.97
2023-04-07T01:14:13.662Z,6.90
2023-04-07T01:16:48.475Z,6.25
2023-04-07T01:19:42.174Z,6.65
2023-04-07T01:22:32.993Z,6.00
2023-04-07T01:25:11.751Z,6.65
2023-04-07T01:27:44.003Z,7.35
2023-04-07T01:30:13.474Z,6.88
2023-04-07T01:32:43.825Z,8.20
2023-04-07T01:35:13.728Z,8.55
2023-04-07T01:37:41.563Z,8.18
2023-04-07T01:40:09.178Z,7.68
2023-04-07T01:42:38.374Z,6.55
2023-04-07T01:45:06.974Z,6.40
2023-04-07T01:47:37.509Z,6.30
2023-04-07T01:50:06.053Z,5.68
2023-04-07T01:52:35.618Z,5.72
2023-04-07T01:55:04.589Z,6.30
2023-04-07T01:57:31.629Z,6.50
2023-04-07T01:59:59.009Z,5.82
2023-04-07T02:02:26.141Z,6.88
2023-04-07T02:04:56.466Z,6.60
2023-04-07T02:07:42.845Z,5.70
2023-04-07T02:10:13.529Z,6.32
2023-04-07T02:12:41.434Z,6.43
2023-04-07T02:15:11.786Z,6.00
2023-04-07T02:17:43.056Z,7.55
2023-04-07T02:20:13.034Z,7.43
2023-04-07T02:22:41.818Z,6.10
2023-04-07T02:25:24.180Z,6.85
2023-04-07T02:27:52.331Z,6.25
2023-04-07T02:30:20.373Z,6.30
2023-04-07T02:32:47.599Z,6.22
2023-04-07T02:35:16.234Z,6.93
2023-04-07T02:37:44.539Z,6.47
2023-04-07T02:40:12.914Z,6.40
2023-04-07T02:42:40.185Z,6.40
2023-04-07T02:45:08.762Z,6.63
2023-04-07T02:47:36.977Z,6.72
2023-04-07T02:50:04.637Z,6.93
2023-04-07T02:52:32.254Z,6.20
2023-04-07T02:54:59.325Z,7.07
2023-04-07T02:57:26.571Z,6.70
2023-04-07T02:59:55.345Z,6.97
2023-04-07T03:02:22.833Z,6.53
2023-04-07T03:04:52.536Z,6.30
2023-04-07T03:07:19.718Z,5.82
2023-04-07T03:09:47.191Z,5.95
2023-04-07T03:12:14.367Z,5.80
2023-04-07T03:14:41.906Z,5.95
2023-04-07T03:17:09.675Z,6.95
2023-04-07T03:19:36.780Z,6.50
2023-04-07T03:22:03.925Z,7.40
2023-04-07T03:24:31.300Z,6.55
2023-04-07T03:26:58.657Z,6.60
2023-04-07T03:29:25.935Z,7.55
2023-04-07T03:31:53.482Z,6.68
2023-04-07T03:34:20.771Z,8.00
2023-04-07T03:36:48.090Z,7.85
2023-04-07T03:39:15.474Z,7.72
2023-04-07T03:41:42.509Z,8.23
2023-04-07T03:44:09.561Z,8.15
2023-04-07T03:46:36.837Z,7.75
2023-04-07T03:49:04.089Z,7.78
2023-04-07T03:51:31.193Z,7.40
2023-04-07T03:53:58.304Z,7.05
2023-04-07T03:56:27.990Z,8.45
2023-04-07T03:58:56.286Z,8.55
2023-04-07T04:01:23.764Z,8.25
2023-04-07T04:03:51.899Z,8.23
2023-04-07T04:06:19.420Z,7.80
2023-04-07T04:08:46.942Z,9.07
2023-04-07T04:11:13.979Z,9.48
2023-04-07T04:13:41.698Z,9.60
2023-04-07T04:16:09.152Z,8.82
2023-04-07T04:18:36.187Z,8.82
2023-04-07T04:21:03.792Z,7.95
2023-04-07T04:23:31.028Z,8.38
2023-04-07T04:26:00.501Z,7.30
2023-04-07T04:28:27.637Z,7.72
2023-04-07T04:30:54.689Z,7.15
2023-04-07T04:33:21.955Z,6.93
2023-04-07T04:35:49.113Z,6.63
2023-04-07T04:38:17.107Z,6.63
2023-04-07T04:40:44.992Z,7.07
2023-04-07T04:43:12.739Z,7.00
2023-04-07T04:45:39.747Z,7.55
2023-04-07T04:48:06.978Z,8.52
2023-04-07T04:50:34.027Z,7.22
2023-04-07T04:53:01.127Z,7.60
2023-04-07T04:55:28.481Z,6.50
2023-04-07T04:57:55.523Z,6.95
2023-04-07T05:00:22.644Z,7.05
2023-04-07T05:02:50.151Z,7.22
2023-04-07T05:05:17.560Z,7.15
2023-04-07T05:07:44.942Z,7.18
2023-04-07T05:10:12.451Z,7.30
2023-04-07T05:12:39.500Z,6.38
2023-04-07T05:15:07.679Z,7.97
2023-04-07T05:17:35.294Z,6.35
2023-04-07T05:20:02.783Z,7.35
2023-04-07T05:22:29.813Z,6.40
2023-04-07T05:24:56.930Z,7.57
2023-04-07T05:27:24.014Z,7.60
2023-04-07T05:29:51.822Z,7.03
2023-04-07T05:32:19.531Z,7.88
2023-04-07T05:34:46.724Z,8.10
2023-04-07T05:37:13.998Z,7.65
2023-04-07T05:39:41.430Z,7.22
2023-04-07T05:42:08.804Z,7.60
2023-04-07T05:44:36.139Z,7.03
2023-04-07T05:47:06.258Z,7.65
2023-04-07T05:49:33.577Z,7.90
2023-04-07T05:52:01.226Z,7.80
2023-04-07T05:54:28.682Z,7.13
2023-04-07T05:56:56.341Z,8.13
2023-04-07T05:59:23.443Z,6.93
2023-04-07T06:01:50.683Z,8.05
2023-04-07T06:04:17.934Z,8.25
2023-04-07T06:06:45.443Z,7.97
2023-04-07T06:09:12.673Z,8.75
2023-04-07T06:11:39.713Z,9.00
2023-04-07T06:14:09.395Z,8.30
2023-04-07T06:16:36.811Z,8.38
2023-04-07T06:19:04.081Z,9.23
2023-04-07T06:21:31.574Z,8.55
2023-04-07T06:23:59.045Z,8.48
2023-04-07T06:26:27.230Z,8.50
2023-04-07T06:28:54.318Z,9.20
2023-04-07T06:31:21.630Z,7.90
2023-04-07T06:33:48.954Z,8.52
2023-04-07T06:36:16.682Z,11.85
2023-04-07T06:38:44.114Z,8.65
2023-04-07T06:41:17.955Z,8.57
2023-04-07T06:43:47.893Z,13.65
2023-04-07T06:46:19.501Z,7.75
2023-04-07T06:48:47.667Z,17.05
2023-04-07T06:51:14.837Z,12.95
2023-04-07T06:53:44.326Z,10.18
2023-04-07T06:56:12.160Z,11.98
2023-04-07T06:58:39.238Z,7.55
2023-04-07T07:01:07.204Z,9.35
2023-04-07T07:03:34.547Z,14.05
2023-04-07T07:06:02.198Z,7.53
2023-04-07T07:08:30.228Z,8.52
2023-04-07T07:10:57.882Z,8.65
2023-04-07T07:13:27.354Z,9.32
2023-04-07T07:15:55.055Z,20.05
2023-04-07T07:18:22.160Z,21.17
2023-04-07T07:20:49.636Z,9.55
2023-04-07T07:23:16.673Z,10.20
2023-04-07T07:25:44.369Z,8.45
2023-04-07T07:28:11.587Z,7.85
2023-04-07T07:30:41.526Z,7.68
2023-04-07T07:33:08.746Z,7.00
2023-04-07T07:35:37.852Z,8.88
2023-04-07T07:38:05.403Z,8.27
2023-04-07T07:40:35.989Z,7.43
2023-04-07T07:43:03.137Z,7.85
2023-04-07T07:45:30.506Z,11.60
2023-04-07T07:47:57.704Z,8.32
2023-04-07T07:50:24.998Z,7.85
2023-04-07T07:52:54.574Z,13.75
2023-04-07T07:55:21.738Z,7.25
2023-04-07T07:57:52.142Z,8.27
2023-04-07T08:00:19.538Z,7.50
2023-04-07T08:02:49.928Z,8.35
2023-04-07T08:05:17.259Z,9.93
2023-04-07T08:07:44.496Z,9.55
2023-04-07T08:10:11.657Z,9.15
2023-04-07T08:12:39.800Z,12.30
2023-04-07T08:15:10.397Z,9.35
2023-04-07T08:17:37.945Z,12.57
2023-04-07T08:20:06.652Z,7.97
2023-04-07T08:22:33.801Z,7.75
2023-04-07T08:25:01.531Z,7.90
2023-04-07T08:27:28.984Z,9.55
2023-04-07T08:30:01.633Z,10.63
2023-04-07T08:32:40.875Z,21.75
2023-04-07T08:37:39.703Z,10.05
2023-04-07T08:40:07.870Z,6.60
2023-04-07T08:42:38.534Z,6.78
2023-04-07T08:45:07.657Z,14.60
2023-04-07T08:47:36.598Z,9.18
2023-04-07T08:50:07.674Z,11.85
2023-04-07T08:52:46.670Z,11.80
2023-04-07T08:55:14.634Z,9.65
2023-04-07T08:57:43.031Z,20.02
2023-04-07T09:00:10.931Z,11.43
2023-04-07T09:02:40.785Z,10.45
2023-04-07T09:05:09.085Z,8.05
2023-04-07T09:07:38.586Z,10.93
2023-04-07T09:10:07.114Z,11.35
2023-04-07T09:12:35.049Z,14.73
2023-04-07T09:15:02.491Z,12.18
2023-04-07T09:17:30.393Z,10.18
2023-04-07T09:19:59.760Z,13.70
2023-04-07T09:22:39.864Z,6.90
2023-04-07T09:25:34.572Z,7.40
2023-04-07T09:28:04.086Z,7.00
2023-04-07T09:30:33.304Z,10.00
2023-04-07T09:33:02.390Z,16.00
2023-04-07T09:35:30.079Z,7.00
2023-04-07T09:38:12.133Z,7.40
2023-04-07T09:40:42.447Z,7.45
2023-04-07T09:43:22.211Z,9.35
2023-04-07T09:45:49.521Z,6.53
2023-04-07T09:48:21.704Z,7.45
2023-04-07T09:51:34.418Z,7.82
2023-04-07T09:54:01.851Z,6.43
2023-04-07T09:56:29.552Z,6.53
2023-04-07T09:58:57.137Z,7.18
2023-04-07T10:01:24.324Z,17.80
2023-04-07T10:03:52.963Z,15.25
2023-04-07T10:06:20.659Z,6.97
2023-04-07T10:08:47.989Z,9.00
2023-04-07T10:11:16.074Z,15.98
2023-04-07T10:13:43.960Z,10.30
2023-04-07T10:16:11.931Z,15.48
2023-04-07T10:18:39.642Z,11.73
2023-04-07T10:21:15.066Z,20.17
2023-04-07T10:23:59.317Z,15.45
2023-04-07T10:26:30.449Z,13.88
2023-04-07T10:29:07.308Z,7.72
2023-04-07T10:31:35.682Z,9.68
2023-04-07T10:34:03.687Z,7.07
2023-04-07T10:36:30.925Z,6.32
2023-04-07T10:39:07.510Z,14.05
2023-04-07T10:41:39.966Z,9.73
2023-04-07T10:44:13.078Z,10.27
2023-04-07T10:46:47.389Z,18.55
2023-04-07T10:49:18.584Z,9.07
2023-04-07T10:52:11.939Z,9.30
2023-04-07T10:54:40.026Z,11.70
2023-04-07T10:57:18.632Z,8.07
2023-04-07T11:00:11.439Z,5.72
2023-04-07T11:02:40.531Z,6.72
2023-04-07T11:05:08.805Z,15.82
2023-04-07T11:07:51.972Z,20.42
2023-04-07T11:10:23.941Z,10.18
2023-04-07T11:13:11.464Z,8.32
2023-04-07T11:15:40.571Z,7.45
2023-04-07T11:18:08.360Z,11.85
2023-04-07T11:20:51.194Z,4.53
2023-04-07T11:23:19.567Z,8.80
2023-04-07T11:25:49.137Z,7.45
2023-04-07T11:28:19.861Z,8.00
2023-04-07T11:30:53.110Z,5.60
2023-04-07T11:33:22.491Z,14.38
2023-04-07T11:35:51.382Z,6.25
2023-04-07T11:38:20.051Z,10.20
2023-04-07T11:40:55.031Z,6.60
2023-04-07T11:43:27.324Z,11.70
2023-04-07T11:46:18.925Z,9.00
2023-04-07T11:48:47.394Z,5.75
2023-04-07T11:51:23.874Z,7.43
2023-04-07T11:53:57.699Z,13.40
2023-04-07T11:56:25.272Z,9.63
2023-04-07T11:58:54.566Z,6.10
2023-04-07T12:01:25.582Z,5.47
2023-04-07T12:03:59.505Z,4.82
2023-04-07T12:06:34.974Z,14.70
2023-04-07T12:09:02.819Z,5.63
2023-04-07T12:11:30.273Z,5.32
2023-04-07T12:13:58.054Z,3.83
2023-04-07T12:16:26.167Z,5.30
2023-04-07T12:18:53.946Z,3.63
2023-04-07T12:21:21.518Z,4.82
2023-04-07T12:23:49.417Z,3.80
2023-04-07T12:30:09.152Z,7.40
2023-04-07T12:32:37.829Z,3.10
2023-04-07T12:35:06.082Z,8.75
2023-04-07T12:37:34.101Z,3.10
2023-04-07T12:40:01.649Z,3.20
2023-04-07T12:42:29.143Z,2.70
2023-04-07T12:44:56.806Z,3.22
2023-04-07T12:47:24.037Z,2.38
2023-04-07T12:49:51.347Z,6.53
2023-04-07T12:52:21.295Z,2.42
2023-04-07T12:54:48.835Z,2.00
2023-04-07T12:57:16.194Z,1.95
2023-04-07T12:59:46.701Z,3.13
2023-04-07T13:02:14.120Z,2.78
2023-04-07T13:04:43.890Z,2.08
2023-04-07T13:07:11.243Z,2.85
2023-04-07T13:09:38.920Z,2.63
2023-04-07T13:12:06.292Z,3.03
2023-04-07T13:14:33.372Z,2.75
2023-04-07T13:17:00.799Z,2.13
2023-04-07T13:19:27.902Z,4.55
2023-04-07T13:21:54.976Z,4.38
2023-04-07T13:24:22.124Z,2.17
2023-04-07T13:26:49.300Z,3.30
2023-04-07T13:29:16.944Z,4.18
2023-04-07T13:31:47.639Z,4.60
2023-04-07T13:34:15.247Z,4.20
2023-04-07T13:36:42.480Z,3.97
2023-04-07T13:39:13.258Z,3.60
2023-04-07T13:41:43.752Z,3.10
2023-04-07T13:44:10.856Z,3.85
2023-04-07T13:46:38.054Z,3.90
2023-04-07T13:49:06.484Z,4.03
2023-04-07T13:51:34.085Z,3.80
2023-04-07T13:54:01.722Z,3.50
2023-04-07T13:56:29.036Z,3.40
2023-04-07T13:58:56.502Z,3.38
2023-04-07T14:01:23.701Z,4.10
2023-04-07T14:03:51.238Z,5.32
2023-04-07T14:06:18.943Z,3.63
2023-04-07T14:08:49.041Z,3.13
2023-04-07T14:11:20.296Z,3.08
2023-04-07T14:13:47.896Z,4.15
2023-04-07T14:16:16.211Z,3.95
2023-04-07T14:18:43.965Z,7.43
2023-04-07T14:21:11.223Z,5.15
2023-04-07T14:23:38.264Z,4.30
2023-04-07T14:26:05.465Z,6.78
2023-04-07T14:28:32.659Z,4.30
2023-04-07T14:30:59.794Z,6.53
2023-04-07T14:33:26.894Z,4.60
2023-04-07T14:35:54.261Z,2.80
2023-04-07T14:38:25.961Z,4.80
2023-04-07T14:40:53.127Z,4.07
2023-04-07T14:43:20.284Z,6.00
2023-04-07T14:45:47.504Z,4.50
2023-04-07T14:48:14.621Z,3.75
2023-04-07T14:50:41.844Z,4.90
2023-04-07T14:53:08.960Z,4.72
2023-04-07T14:55:37.106Z,3.90
2023-04-07T14:58:04.135Z,4.25
2023-04-07T15:00:31.179Z,6.40
2023-04-07T15:02:58.441Z,3.67
2023-04-07T15:05:28.008Z,3.97
2023-04-07T15:07:55.138Z,3.88
2023-04-07T15:10:22.496Z,3.85
2023-04-07T15:12:50.336Z,4.45
2023-04-07T15:15:17.759Z,4.03
2023-04-07T15:17:45.525Z,4.70
2023-04-07T15:20:13.414Z,4.57
2023-04-07T15:22:40.683Z,5.40
2023-04-07T15:25:08.558Z,6.32
2023-04-07T15:27:35.905Z,6.07
2023-04-07T15:30:03.323Z,6.03
2023-04-07T15:32:31.572Z,4.40
2023-04-07T15:34:58.678Z,4.25
2023-04-07T15:37:26.312Z,4.00
2023-04-07T15:39:53.424Z,4.30
2023-04-07T15:42:20.571Z,3.65
2023-04-07T15:44:47.718Z,4.53
2023-04-07T15:47:14.750Z,3.65
2023-04-07T15:49:42.397Z,3.80
2023-04-07T15:52:11.914Z,3.90
2023-04-07T15:54:39.016Z,3.92
2023-04-07T15:57:06.085Z,4.70
2023-04-07T15:59:33.378Z,4.10
2023-04-07T16:02:00.674Z,3.40
2023-04-07T16:04:28.192Z,4.22
2023-04-07T16:06:55.259Z,3.45
2023-04-07T16:09:22.386Z,6.00
2023-04-07T16:11:49.699Z,4.50
2023-04-07T16:14:16.793Z,10.65
2023-04-07T16:16:44.594Z,10.55
2023-04-07T16:19:14.853Z,5.80
2023-04-07T16:21:41.934Z,4.90
2023-04-07T16:24:09.396Z,6.00
2023-04-07T16:26:39.653Z,4.80
2023-04-07T16:29:06.733Z,5.07
2023-04-07T16:31:34.043Z,5.28
2023-04-07T16:34:04.642Z,6.63
2023-04-07T16:36:32.106Z,5.70
2023-04-07T16:38:59.213Z,5.20
2023-04-07T16:41:26.372Z,5.38
2023-04-07T16:43:53.718Z,6.60
2023-04-07T16:46:21.090Z,5.15
2023-04-07T16:48:48.500Z,6.15
2023-04-07T16:51:21.610Z,5.80
2023-04-07T16:53:49.140Z,5.63
2023-04-07T16:56:17.552Z,8.20
2023-04-07T16:58:45.199Z,10.20
2023-04-07T17:01:12.324Z,6.38
2023-04-07T17:03:40.348Z,5.82
2023-04-07T17:06:07.878Z,5.95
2023-04-07T17:08:36.600Z,9.27
2023-04-07T17:11:07.751Z,5.47
2023-04-07T17:13:35.149Z,9.07
2023-04-07T17:16:04.174Z,5.70
2023-04-07T17:18:33.075Z,8.23
2023-04-07T17:21:00.174Z,5.28
2023-04-07T17:23:28.410Z,4.55
2023-04-07T17:25:55.550Z,5.13
2023-04-07T17:28:22.641Z,5.00
2023-04-07T17:30:49.994Z,4.20
2023-04-07T17:33:17.411Z,5.15
2023-04-07T17:35:47.696Z,5.72
2023-04-07T17:38:14.797Z,4.68
2023-04-07T17:40:42.453Z,4.45
2023-04-07T17:43:09.513Z,4.25
2023-04-07T17:45:36.911Z,5.68
2023-04-07T17:48:04.108Z,6.55
2023-04-07T17:50:31.241Z,6.78
2023-04-07T17:53:00.339Z,6.07
2023-04-07T17:55:31.587Z,7.18
2023-04-07T17:58:01.585Z,16.85
2023-04-07T18:00:29.865Z,5.32
2023-04-07T18:02:57.174Z,4.78
2023-04-07T18:05:27.478Z,5.28
2023-04-07T18:07:57.737Z,5.40
2023-04-07T18:10:24.872Z,5.85
2023-04-07T18:12:52.442Z,12.57
2023-04-07T18:15:19.522Z,5.40
2023-04-07T18:17:49.038Z,4.82
2023-04-07T18:20:16.745Z,6.50
2023-04-07T18:22:44.605Z,5.30
2023-04-07T18:25:12.415Z,5.93
2023-04-07T18:27:39.488Z,4.93
2023-04-07T18:30:07.379Z,5.07
2023-04-07T18:32:35.393Z,5.20
2023-04-07T18:35:03.643Z,5.18
2023-04-07T18:37:31.408Z,6.25
2023-04-07T18:39:58.791Z,5.65
2023-04-07T18:42:26.061Z,4.63
2023-04-07T18:44:53.526Z,4.88
2023-04-07T18:47:21.260Z,5.00
2023-04-07T18:49:53.199Z,5.13
2023-04-07T18:52:20.532Z,5.90
2023-04-07T18:54:47.819Z,6.15
2023-04-07T18:57:15.011Z,6.40
2023-04-07T18:59:42.575Z,6.82
2023-04-07T19:02:09.753Z,8.10
2023-04-07T19:04:36.980Z,6.90
2023-04-07T19:07:04.105Z,6.88
2023-04-07T19:09:31.675Z,7.38
2023-04-07T19:11:59.597Z,7.15
2023-04-07T19:14:26.671Z,7.35
2023-04-07T19:16:53.732Z,10.77
2023-04-07T19:19:20.970Z,6.45
2023-04-07T19:21:48.418Z,8.40
2023-04-07T19:24:15.708Z,9.20
2023-04-07T19:26:43.327Z,7.43
2023-04-07T19:29:12.720Z,10.27
2023-04-07T19:31:39.988Z,8.23
2023-04-07T19:34:07.535Z,7.85
2023-04-07T19:36:34.657Z,8.50
2023-04-07T19:39:03.411Z,8.13
2023-04-07T19:41:31.568Z,8.32
2023-04-07T19:43:58.634Z,9.70
2023-04-07T19:46:25.953Z,8.38
2023-04-07T19:48:53.110Z,11.02
2023-04-07T19:51:20.871Z,8.93
2023-04-07T19:53:48.665Z,11.05
2023-04-07T19:56:15.909Z,8.30
2023-04-07T19:58:42.995Z,8.38
2023-04-07T20:01:19.467Z,7.88
2023-04-07T20:03:47.112Z,10.40
2023-04-07T20:06:15.259Z,8.32
2023-04-07T20:08:42.738Z,7.30
2023-04-07T20:11:12.682Z,7.60
2023-04-07T20:13:41.227Z,7.93
2023-04-07T20:16:08.731Z,9.13
2023-04-07T20:18:35.915Z,7.85
2023-04-07T20:21:07.647Z,19.20
2023-04-07T20:26:02.294Z,9.93
2023-04-07T20:28:29.713Z,9.13
2023-04-07T20:30:56.893Z,11.05
2023-04-07T20:33:24.044Z,9.18
2023-04-07T20:35:51.237Z,8.98
2023-04-07T20:38:19.383Z,9.60
2023-04-07T20:40:46.811Z,9.65
2023-04-07T20:43:15.206Z,10.15
2023-04-07T20:45:42.296Z,10.48
2023-04-07T20:48:09.551Z,10.20
2023-04-07T20:50:36.581Z,10.23
2023-04-07T20:53:03.619Z,12.65
2023-04-07T20:55:31.002Z,10.40
2023-04-07T20:57:58.149Z,9.50
2023-04-07T21:00:26.042Z,9.98
2023-04-07T21:02:53.257Z,10.70
2023-04-07T21:05:20.794Z,14.50
2023-04-07T21:07:48.287Z,10.27
2023-04-07T21:10:15.443Z,10.10
2023-04-07T21:12:42.690Z,9.25
2023-04-07T21:15:10.115Z,10.65
2023-04-07T21:17:37.316Z,24.52
2023-04-07T21:20:04.811Z,13.20
2023-04-07T21:22:31.972Z,9.93
2023-04-07T21:24:59.418Z,10.10
2023-04-07T21:27:26.594Z,11.02
2023-04-07T21:29:53.757Z,12.38
2023-04-07T21:32:20.994Z,10.55
2023-04-07T21:34:52.320Z,10.73
2023-04-07T21:37:20.353Z,10.32
2023-04-07T21:39:47.417Z,9.85
2023-04-07T21:42:14.730Z,9.38
2023-04-07T21:44:42.504Z,9.25
2023-04-07T21:47:09.742Z,8.88
2023-04-07T21:49:39.351Z,9.77
2023-04-07T21:52:07.198Z,8.75
2023-04-07T21:54:34.320Z,8.60
2023-04-07T21:57:01.453Z,9.05
2023-04-07T21:59:28.750Z,9.48
2023-04-07T22:01:56.429Z,10.07
2023-04-07T22:04:24.060Z,9.63
2023-04-07T22:06:51.663Z,10.70
2023-04-07T22:09:18.753Z,10.68
2023-04-07T22:11:46.080Z,10.40
2023-04-07T22:14:13.220Z,10.02
2023-04-07T22:16:40.787Z,9.70
2023-04-07T22:19:07.962Z,11.60
2023-04-07T22:21:36.217Z,10.20
2023-04-07T22:24:03.421Z,10.98
2023-04-07T22:26:31.996Z,9.73
2023-04-07T22:28:59.082Z,10.45
2023-04-07T22:31:26.316Z,10.18
2023-04-07T22:33:53.395Z,10.07
2023-04-07T22:36:20.623Z,11.00
2023-04-07T22:38:47.869Z,12.13
2023-04-07T22:41:15.291Z,11.43
2023-04-07T22:43:42.325Z,11.25
2023-04-07T22:46:09.409Z,11.73
2023-04-07T22:48:36.788Z,10.88
2023-04-07T22:51:04.207Z,10.73
2023-04-07T22:53:31.311Z,9.55
2023-04-07T22:55:58.485Z,11.50
2023-04-07T22:58:25.742Z,10.63
2023-04-07T23:00:52.899Z,10.63
2023-04-07T23:03:20.066Z,13.35
2023-04-07T23:05:47.370Z,10.95
2023-04-07T23:08:14.544Z,10.13
2023-04-07T23:10:41.596Z,11.65
2023-04-07T23:13:08.665Z,10.95
2023-04-07T23:15:38.717Z,10.77
2023-04-07T23:18:06.284Z,10.90
2023-04-07T23:20:33.661Z,12.05
2023-04-07T23:23:00.821Z,12.07
2023-04-07T23:25:28.146Z,12.25
2023-04-07T23:27:55.497Z,12.48
2023-04-07T23:30:22.532Z,12.30
2023-04-07T23:32:49.822Z,13.27
2023-04-07T23:35:17.432Z,12.38
2023-04-07T23:37:44.644Z,13.25
2023-04-07T23:40:12.551Z,12.85
2023-04-07T23:42:39.806Z,14.10
2023-04-07T23:45:07.444Z,12.27
2023-04-07T23:47:34.722Z,12.65
2023-04-07T23:50:03.001Z,13.98
2023-04-07T23:52:30.138Z,13.05
2023-04-07T23:54:57.250Z,12.82
2023-04-07T23:57:24.399Z,12.10
2023-04-07T23:59:51.514Z,12.27
